MV Magnolia — WDH4902 — position and weather

sailwx.info

Track history (hours):
 
Tides and Currents Weather Stations Pressure Air Temp Water Temp Dewpoint Dewpoint Depression Visibility Wind Speed Wind Dir Waves Ship Positions

MV Magnolia

Owner: MV Magnolia, LLC, destrehan, LA. More information available from US FCC via Universal Licensing System and Coast Guard Vessel Documentation Center.

Last reported at 2018-Jul-22 12:30 UTC. Time now 2018-Jul-22 12:33 UTC.
Position N 29°60' W 093°13'.

Length 21 m; draft 2.6 m.

Type: Towing. MMSI: 367622520.

Date/timePositionNaut miles runAvg speedWind from/ knotsBaromVisibWave heightAir tempDewpointWater temp
2018-Jul-22 12:30N 29°60' W 093°13'0 0.4
2018-Jul-22 12:00N 29°60' W 093°13'0 0.0
2018-Jul-22 11:30N 29°60' W 093°13'0 0.0
2018-Jul-22 11:00N 29°60' W 093°13'0 0.0
2018-Jul-22 10:30N 29°60' W 093°13'0 0.0
2018-Jul-22 10:00N 29°60' W 093°13'0 0.0
2018-Jul-22 09:30N 29°60' W 093°13'0 0.0
2018-Jul-22 08:59N 29°60' W 093°13'0 0.0
2018-Jul-22 08:31N 29°60' W 093°13'0 0.0
2018-Jul-22 08:00N 29°60' W 093°13'0 0.0
2018-Jul-22 07:30N 29°60' W 093°13'0 0.0
2018-Jul-22 07:00N 29°60' W 093°13'0 0.0
2018-Jul-22 06:30N 29°60' W 093°13'0 0.0
2018-Jul-22 06:00N 29°60' W 093°13'0 0.0
2018-Jul-22 05:30N 29°60' W 093°13'0 0.0
2018-Jul-22 05:00N 29°60' W 093°13'0 0.0
2018-Jul-22 04:30N 29°60' W 093°13'0 0.0
2018-Jul-22 04:00N 29°60' W 093°13'0 0.0
2018-Jul-22 03:30N 29°60' W 093°13'0 0.0
2018-Jul-22 03:00N 29°60' W 093°13'0 0.0
2018-Jul-22 02:30N 29°60' W 093°13'0 0.0
2018-Jul-22 02:00N 29°60' W 093°13'0 0.0
2018-Jul-22 01:30N 29°60' W 093°13'0 0.0
2018-Jul-22 01:00N 29°60' W 093°13'0 0.0
2018-Jul-22 00:30N 29°60' W 093°13'0 0.0
2018-Jul-22 00:00N 29°60' W 093°13'0 0.0
2018-Jul-21 23:30N 29°60' W 093°13'0 0.0
2018-Jul-21 23:00N 29°60' W 093°13'0 0.0
2018-Jul-21 22:31N 29°60' W 093°13'0 0.0
2018-Jul-21 21:59N 29°60' W 093°13'0 0.0
2018-Jul-21 21:30N 29°60' W 093°13'0 0.0
2018-Jul-21 21:00N 29°60' W 093°13'0 0.0
2018-Jul-21 20:30N 29°60' W 093°13'0 0.0
2018-Jul-21 20:00N 29°60' W 093°13'0 0.0
2018-Jul-21 19:30N 29°60' W 093°13'0 0.4
2018-Jul-21 19:00N 29°60' W 093°13'1 1.9
2018-Jul-21 18:30N 29°59' W 093°12'2 3.3
2018-Jul-21 18:00N 29°58' W 093°11'2 3.1
2018-Jul-21 17:30N 29°56' W 093°10'2 4.2
2018-Jul-21 16:59N 29°56' W 093°07'1 1.5
2018-Jul-21 16:21N 29°56' W 093°06'0 0.5
2018-Jul-21 16:00N 29°56' W 093°06'0 0.0
2018-Jul-21 14:44N 29°56' W 093°06'0 0.0
2018-Jul-21 14:26N 29°56' W 093°06'0 0.0
2018-Jul-21 13:28N 29°56' W 093°06'0 0.1
2018-Jul-21 13:00N 29°56' W 093°06'0 0.0
2018-Jul-21 12:30N 29°56' W 093°06'0 0.0
2018-Jul-21 11:55N 29°56' W 093°06'0 0.0
2018-Jul-21 11:14N 29°56' W 093°06'0 0.0
2018-Jul-21 10:55N 29°56' W 093°06'0 0.2
2018-Jul-21 10:30N 29°56' W 093°06'0 0.0
2018-Jul-21 09:57N 29°56' W 093°06'0 0.1
2018-Jul-21 09:31N 29°56' W 093°06'0 0.1
2018-Jul-21 08:59N 29°56' W 093°06'0 0.0
2018-Jul-21 08:30N 29°56' W 093°06'0 0.0
2018-Jul-21 08:00N 29°56' W 093°06'0 0.0
2018-Jul-21 07:30N 29°56' W 093°06'0 0.3
2018-Jul-21 07:00N 29°56' W 093°06'0 0.2
2018-Jul-21 06:30N 29°56' W 093°05'1 2.2
2018-Jul-21 06:00N 29°56' W 093°04'1 2.6
2018-Jul-21 05:30N 29°56' W 093°03'0 0.9
2018-Jul-21 05:00N 29°56' W 093°02'0 0.0
2018-Jul-21 04:30N 29°56' W 093°02'0 0.0
2018-Jul-21 04:00N 29°56' W 093°02'0 0.0
2018-Jul-21 03:30N 29°56' W 093°02'1 1.9
2018-Jul-21 03:00N 29°56' W 093°01'1 2.0
2018-Jul-21 02:30N 29°56' W 092°60'0 0.0
2018-Jul-21 02:00N 29°56' W 092°60'1 1.8
2018-Jul-21 01:30N 29°56' W 092°59'2 4.4
2018-Jul-21 01:00N 29°56' W 092°56'3 1.7
2018-Jul-20 23:25N 29°57' W 092°53'0 0.0
2018-Jul-20 22:35N 29°57' W 092°53'0 0.0
2018-Jul-20 22:30N 29°57' W 092°53'5 0.6
2018-Jul-20 14:21N 29°58' W 092°48'2 4.4
2018-Jul-20 14:00N 29°58' W 092°46'2 4.1
2018-Jul-20 13:24N 29°57' W 092°43'0 0.0
2018-Jul-20 13:00N 29°57' W 092°43'0 0.0
2018-Jul-20 12:30N 29°57' W 092°43'0 0.0
2018-Jul-20 12:00N 29°57' W 092°43'0 0.0
2018-Jul-20 11:30N 29°57' W 092°43'0 0.0
2018-Jul-20 11:01N 29°57' W 092°43'0 0.0
2018-Jul-20 10:30N 29°57' W 092°43'0 0.0
2018-Jul-20 10:00N 29°57' W 092°43'0 0.0
2018-Jul-20 09:30N 29°57' W 092°43'0 0.0
2018-Jul-20 09:00N 29°57' W 092°43'0 0.0
2018-Jul-20 08:30N 29°57' W 092°43'0 0.0
2018-Jul-20 07:59N 29°57' W 092°43'0 0.0
2018-Jul-20 07:30N 29°57' W 092°43'0 0.0
2018-Jul-20 06:57N 29°57' W 092°43'0 0.0
2018-Jul-20 06:28N 29°57' W 092°43'0 0.0
2018-Jul-20 06:00N 29°57' W 092°43'0 0.0
2018-Jul-20 05:30N 29°57' W 092°43'0 0.0
2018-Jul-20 05:00N 29°57' W 092°43'0 0.0
2018-Jul-20 04:30N 29°57' W 092°43'0 0.0
2018-Jul-20 04:00N 29°57' W 092°43'0 0.0
2018-Jul-20 03:27N 29°57' W 092°43'0 0.0
2018-Jul-20 02:54N 29°57' W 092°43'0 0.0
2018-Jul-20 02:28N 29°57' W 092°43'0 0.0
2018-Jul-20 01:59N 29°57' W 092°43'0 0.0
2018-Jul-20 01:30N 29°57' W 092°43'11 0.9
2018-Jul-19 13:22N 29°54' W 092°31'2 4.0
2018-Jul-19 12:55N 29°54' W 092°29'2 4.0
2018-Jul-19 12:28N 29°54' W 092°27'3 4.0
2018-Jul-19 11:41N 29°53' W 092°23'1 3.9
2018-Jul-19 11:29N 29°52' W 092°23'2 3.7
2018-Jul-19 11:00N 29°51' W 092°22'2 3.7
2018-Jul-19 10:30N 29°50' W 092°19'2 3.6
2018-Jul-19 10:01N 29°50' W 092°18'2 3.7
2018-Jul-19 09:30N 29°49' W 092°16'2 3.1
2018-Jul-19 09:00N 29°48' W 092°14'2 4.0
2018-Jul-19 08:30N 29°47' W 092°12'2 3.5
2018-Jul-19 08:00N 29°47' W 092°10'2 4.5
2018-Jul-19 07:30N 29°47' W 092°08'2 3.6
2018-Jul-19 06:59N 29°48' W 092°06'2 3.2
2018-Jul-19 06:30N 29°48' W 092°04'2 3.1
2018-Jul-19 06:00N 29°49' W 092°02'2 4.6
2018-Jul-19 05:30N 29°50' W 091°60'2 4.3
2018-Jul-19 05:00N 29°50' W 091°58'2 4.4
2018-Jul-19 04:30N 29°51' W 091°55'49 1.2
2018-Jul-17 12:49N 30°23' W 091°14'1 2.9
2018-Jul-17 12:27N 30°22' W 091°14'  
2018-Jul-14 22:18N 29°51' W 091°52'1 3.6
2018-Jul-14 21:57N 29°51' W 091°53'2 4.2
2018-Jul-14 21:30N 29°51' W 091°56'2 4.1
2018-Jul-14 21:00N 29°50' W 091°58'2 3.9
2018-Jul-14 20:30N 29°50' W 092°00'2 4.3
2018-Jul-14 20:00N 29°49' W 092°02'2 4.2
2018-Jul-14 19:30N 29°48' W 092°05'2 4.4
2018-Jul-14 19:00N 29°47' W 092°07'2 4.4
2018-Jul-14 18:30N 29°47' W 092°09'2 3.8
2018-Jul-14 18:00N 29°47' W 092°12'1 1.7
2018-Jul-14 17:30N 29°47' W 092°13'1 2.9
2018-Jul-14 17:00N 29°48' W 092°14'2 3.9
2018-Jul-14 16:30N 29°49' W 092°16'2 3.6
2018-Jul-14 16:00N 29°50' W 092°18'2 3.4
2018-Jul-14 15:30N 29°50' W 092°20'2 3.3
2018-Jul-14 14:58N 29°51' W 092°22'1 2.5
2018-Jul-14 14:28N 29°52' W 092°22'31 3.5
2018-Jul-14 05:37N 29°56' W 092°57'1 3.6
2018-Jul-14 05:29N 29°56' W 092°58'2 3.6
2018-Jul-14 04:56N 29°56' W 093°00'1 3.3
2018-Jul-14 04:30N 29°56' W 093°02'2 3.2
2018-Jul-14 04:00N 29°56' W 093°04'2 3.8
2018-Jul-14 03:30N 29°56' W 093°06'2 3.4
2018-Jul-14 03:00N 29°56' W 093°08'2 3.3
2018-Jul-14 02:30N 29°56' W 093°10'2 3.6
2018-Jul-14 02:00N 29°58' W 093°11'2 3.6
2018-Jul-14 01:30N 29°59' W 093°12'2 3.3
2018-Jul-14 01:00N 30°00' W 093°14'2 3.1
2018-Jul-14 00:30N 30°02' W 093°14'1 2.7
2018-Jul-14 00:00N 30°03' W 093°16'1 3.0
2018-Jul-13 23:30N 30°04' W 093°16'2 3.4
2018-Jul-13 23:00N 30°05' W 093°18'0 0.8
2018-Jul-13 22:30N 30°05' W 093°18'1 1.1
2018-Jul-13 22:00N 30°06' W 093°18'0 0.0
2018-Jul-13 21:30N 30°06' W 093°18'0 0.1
2018-Jul-13 21:00N 30°06' W 093°18'0 0.0
2018-Jul-13 20:30N 30°06' W 093°18'0 0.0
2018-Jul-13 20:00N 30°06' W 093°18'0 0.0
2018-Jul-13 19:30N 30°06' W 093°18'0 0.0
2018-Jul-13 19:00N 30°06' W 093°18'0 0.1
2018-Jul-13 18:30N 30°06' W 093°18'0 0.0
2018-Jul-13 18:00N 30°06' W 093°18'0 0.0
2018-Jul-13 17:30N 30°06' W 093°18'0 0.0
2018-Jul-13 17:00N 30°06' W 093°18'0 0.0
2018-Jul-13 16:30N 30°06' W 093°18'0 0.0
2018-Jul-13 16:00N 30°06' W 093°18'0 0.1
2018-Jul-13 15:30N 30°06' W 093°18'0 0.0
2018-Jul-13 15:00N 30°06' W 093°18'2 1.8
2018-Jul-13 14:00N 30°05' W 093°20'2 3.0
2018-Jul-13 13:30N 30°04' W 093°21'1 2.7
2018-Jul-13 13:00N 30°04' W 093°23'1 1.3
2018-Jul-13 12:30N 30°04' W 093°23'0 0.0
2018-Jul-13 12:00N 30°04' W 093°23'0 0.0
2018-Jul-13 11:30N 30°04' W 093°23'0 0.1
2018-Jul-13 11:00N 30°04' W 093°23'0 0.0
2018-Jul-13 10:30N 30°04' W 093°23'0 0.0
2018-Jul-13 10:00N 30°04' W 093°23'0 0.0
2018-Jul-13 09:30N 30°04' W 093°23'0 0.0
2018-Jul-13 09:00N 30°04' W 093°23'0 0.0
2018-Jul-13 08:30N 30°04' W 093°23'0 0.0
2018-Jul-13 08:00N 30°04' W 093°23'0 0.0
2018-Jul-13 07:30N 30°04' W 093°23'0 0.0
2018-Jul-13 07:00N 30°04' W 093°23'0 0.0
2018-Jul-13 06:30N 30°04' W 093°23'0 0.0
2018-Jul-13 06:00N 30°04' W 093°23'0 0.0
2018-Jul-13 05:30N 30°04' W 093°23'0 0.0
2018-Jul-13 05:00N 30°04' W 093°23'0 0.0
2018-Jul-13 04:30N 30°04' W 093°23'0 0.0
2018-Jul-13 04:00N 30°04' W 093°23'0 0.0
2018-Jul-13 03:30N 30°04' W 093°23'0 0.0
2018-Jul-13 03:00N 30°04' W 093°23'0 0.0
2018-Jul-13 02:30N 30°04' W 093°23'0 0.0
2018-Jul-13 02:00N 30°04' W 093°23'0 0.0
2018-Jul-13 01:30N 30°04' W 093°23'0 0.0
2018-Jul-13 01:00N 30°04' W 093°23'0 0.0
2018-Jul-13 00:30N 30°04' W 093°23'0 0.0
2018-Jul-13 00:00N 30°04' W 093°23'0 0.0
2018-Jul-12 23:30N 30°04' W 093°23'0 0.0
2018-Jul-12 23:00N 30°04' W 093°23'2 3.5
2018-Jul-12 22:30N 30°04' W 093°21'0 0.0
2018-Jul-12 22:00N 30°04' W 093°21'0 0.0
2018-Jul-12 21:30N 30°04' W 093°21'0 0.0
2018-Jul-12 21:00N 30°04' W 093°21'0 0.0
2018-Jul-12 20:30N 30°04' W 093°21'0 0.0
2018-Jul-12 20:00N 30°04' W 093°21'2 3.5
2018-Jul-12 19:30N 30°04' W 093°23'0 0.0
2018-Jul-12 19:00N 30°04' W 093°23'0 0.0
2018-Jul-12 18:30N 30°04' W 093°23'0 0.0
2018-Jul-12 18:00N 30°04' W 093°23'0 0.0
2018-Jul-12 17:30N 30°04' W 093°23'0 0.0
2018-Jul-12 17:00N 30°04' W 093°23'0 0.0
2018-Jul-12 16:30N 30°04' W 093°23'0 0.0
2018-Jul-12 16:00N 30°04' W 093°23'0 0.0
2018-Jul-12 15:30N 30°04' W 093°23'0 0.0
2018-Jul-12 15:00N 30°04' W 093°23'0 0.0
2018-Jul-12 14:30N 30°04' W 093°23'0 0.0
2018-Jul-12 14:00N 30°04' W 093°23'0 0.0
2018-Jul-12 13:30N 30°04' W 093°23'0 0.0
2018-Jul-12 13:00N 30°04' W 093°23'  
Track history (hours):
 
Tides and Currents Weather Stations Pressure Air Temp Water Temp Dewpoint Dewpoint Depression Visibility Wind Speed Wind Dir Waves Ship Positions

MV Magnolia

Owner: MV Magnolia, LLC, destrehan, LA. More information available from US FCC via Universal Licensing System and Coast Guard Vessel Documentation Center.

Last reported at 2018-Jul-22 12:30 UTC. Time now 2018-Jul-22 12:33 UTC.
Position N 29°60' W 093°13'.

Length 21 m; draft 2.6 m.

Type: Towing. MMSI: 367622520.

Date/timePositionNaut miles runAvg speedWind from/ knotsBaromVisibWave heightAir tempDewpointWater temp
2018-Jul-22 12:30N 29°60' W 093°13'0 0.4
2018-Jul-22 12:00N 29°60' W 093°13'0 0.0
2018-Jul-22 11:30N 29°60' W 093°13'0 0.0
2018-Jul-22 11:00N 29°60' W 093°13'0 0.0
2018-Jul-22 10:30N 29°60' W 093°13'0 0.0
2018-Jul-22 10:00N 29°60' W 093°13'0 0.0
2018-Jul-22 09:30N 29°60' W 093°13'0 0.0
2018-Jul-22 08:59N 29°60' W 093°13'0 0.0
2018-Jul-22 08:31N 29°60' W 093°13'0 0.0
2018-Jul-22 08:00N 29°60' W 093°13'0 0.0
2018-Jul-22 07:30N 29°60' W 093°13'0 0.0
2018-Jul-22 07:00N 29°60' W 093°13'0 0.0
2018-Jul-22 06:30N 29°60' W 093°13'0 0.0
2018-Jul-22 06:00N 29°60' W 093°13'0 0.0
2018-Jul-22 05:30N 29°60' W 093°13'0 0.0
2018-Jul-22 05:00N 29°60' W 093°13'0 0.0
2018-Jul-22 04:30N 29°60' W 093°13'0 0.0
2018-Jul-22 04:00N 29°60' W 093°13'0 0.0
2018-Jul-22 03:30N 29°60' W 093°13'0 0.0
2018-Jul-22 03:00N 29°60' W 093°13'0 0.0
2018-Jul-22 02:30N 29°60' W 093°13'0 0.0
2018-Jul-22 02:00N 29°60' W 093°13'0 0.0
2018-Jul-22 01:30N 29°60' W 093°13'0 0.0
2018-Jul-22 01:00N 29°60' W 093°13'0 0.0
2018-Jul-22 00:30N 29°60' W 093°13'0 0.0
2018-Jul-22 00:00N 29°60' W 093°13'0 0.0
2018-Jul-21 23:30N 29°60' W 093°13'0 0.0
2018-Jul-21 23:00N 29°60' W 093°13'0 0.0
2018-Jul-21 22:31N 29°60' W 093°13'0 0.0
2018-Jul-21 21:59N 29°60' W 093°13'0 0.0
2018-Jul-21 21:30N 29°60' W 093°13'0 0.0
2018-Jul-21 21:00N 29°60' W 093°13'0 0.0
2018-Jul-21 20:30N 29°60' W 093°13'0 0.0
2018-Jul-21 20:00N 29°60' W 093°13'0 0.0
2018-Jul-21 19:30N 29°60' W 093°13'0 0.4
2018-Jul-21 19:00N 29°60' W 093°13'1 1.9
2018-Jul-21 18:30N 29°59' W 093°12'2 3.3
2018-Jul-21 18:00N 29°58' W 093°11'2 3.1
2018-Jul-21 17:30N 29°56' W 093°10'2 4.2
2018-Jul-21 16:59N 29°56' W 093°07'1 1.5
2018-Jul-21 16:21N 29°56' W 093°06'0 0.5
2018-Jul-21 16:00N 29°56' W 093°06'0 0.0
2018-Jul-21 14:44N 29°56' W 093°06'0 0.0
2018-Jul-21 14:26N 29°56' W 093°06'0 0.0
2018-Jul-21 13:28N 29°56' W 093°06'0 0.1
2018-Jul-21 13:00N 29°56' W 093°06'0 0.0
2018-Jul-21 12:30N 29°56' W 093°06'0 0.0
2018-Jul-21 11:55N 29°56' W 093°06'0 0.0
2018-Jul-21 11:14N 29°56' W 093°06'0 0.0
2018-Jul-21 10:55N 29°56' W 093°06'0 0.2
2018-Jul-21 10:30N 29°56' W 093°06'0 0.0
2018-Jul-21 09:57N 29°56' W 093°06'0 0.1
2018-Jul-21 09:31N 29°56' W 093°06'0 0.1
2018-Jul-21 08:59N 29°56' W 093°06'0 0.0
2018-Jul-21 08:30N 29°56' W 093°06'0 0.0
2018-Jul-21 08:00N 29°56' W 093°06'0 0.0
2018-Jul-21 07:30N 29°56' W 093°06'0 0.3
2018-Jul-21 07:00N 29°56' W 093°06'0 0.2
2018-Jul-21 06:30N 29°56' W 093°05'1 2.2
2018-Jul-21 06:00N 29°56' W 093°04'1 2.6
2018-Jul-21 05:30N 29°56' W 093°03'0 0.9
2018-Jul-21 05:00N 29°56' W 093°02'0 0.0
2018-Jul-21 04:30N 29°56' W 093°02'0 0.0
2018-Jul-21 04:00N 29°56' W 093°02'0 0.0
2018-Jul-21 03:30N 29°56' W 093°02'1 1.9
2018-Jul-21 03:00N 29°56' W 093°01'1 2.0
2018-Jul-21 02:30N 29°56' W 092°60'0 0.0
2018-Jul-21 02:00N 29°56' W 092°60'1 1.8
2018-Jul-21 01:30N 29°56' W 092°59'2 4.4
2018-Jul-21 01:00N 29°56' W 092°56'3 1.7
2018-Jul-20 23:25N 29°57' W 092°53'0 0.0
2018-Jul-20 22:35N 29°57' W 092°53'0 0.0
2018-Jul-20 22:30N 29°57' W 092°53'5 0.6
2018-Jul-20 14:21N 29°58' W 092°48'2 4.4
2018-Jul-20 14:00N 29°58' W 092°46'2 4.1
2018-Jul-20 13:24N 29°57' W 092°43'0 0.0
2018-Jul-20 13:00N 29°57' W 092°43'0 0.0
2018-Jul-20 12:30N 29°57' W 092°43'0 0.0
2018-Jul-20 12:00N 29°57' W 092°43'0 0.0
2018-Jul-20 11:30N 29°57' W 092°43'0 0.0
2018-Jul-20 11:01N 29°57' W 092°43'0 0.0
2018-Jul-20 10:30N 29°57' W 092°43'0 0.0
2018-Jul-20 10:00N 29°57' W 092°43'0 0.0
2018-Jul-20 09:30N 29°57' W 092°43'0 0.0
2018-Jul-20 09:00N 29°57' W 092°43'0 0.0
2018-Jul-20 08:30N 29°57' W 092°43'0 0.0
2018-Jul-20 07:59N 29°57' W 092°43'0 0.0
2018-Jul-20 07:30N 29°57' W 092°43'0 0.0
2018-Jul-20 06:57N 29°57' W 092°43'0 0.0
2018-Jul-20 06:28N 29°57' W 092°43'0 0.0
2018-Jul-20 06:00N 29°57' W 092°43'0 0.0
2018-Jul-20 05:30N 29°57' W 092°43'0 0.0
2018-Jul-20 05:00N 29°57' W 092°43'0 0.0
2018-Jul-20 04:30N 29°57' W 092°43'0 0.0
2018-Jul-20 04:00N 29°57' W 092°43'0 0.0
2018-Jul-20 03:27N 29°57' W 092°43'0 0.0
2018-Jul-20 02:54N 29°57' W 092°43'0 0.0
2018-Jul-20 02:28N 29°57' W 092°43'0 0.0
2018-Jul-20 01:59N 29°57' W 092°43'0 0.0
2018-Jul-20 01:30N 29°57' W 092°43'11 0.9
2018-Jul-19 13:22N 29°54' W 092°31'2 4.0
2018-Jul-19 12:55N 29°54' W 092°29'2 4.0
2018-Jul-19 12:28N 29°54' W 092°27'3 4.0
2018-Jul-19 11:41N 29°53' W 092°23'1 3.9
2018-Jul-19 11:29N 29°52' W 092°23'2 3.7
2018-Jul-19 11:00N 29°51' W 092°22'2 3.7
2018-Jul-19 10:30N 29°50' W 092°19'2 3.6
2018-Jul-19 10:01N 29°50' W 092°18'2 3.7
2018-Jul-19 09:30N 29°49' W 092°16'2 3.1
2018-Jul-19 09:00N 29°48' W 092°14'2 4.0
2018-Jul-19 08:30N 29°47' W 092°12'2 3.5
2018-Jul-19 08:00N 29°47' W 092°10'2 4.5
2018-Jul-19 07:30N 29°47' W 092°08'2 3.6
2018-Jul-19 06:59N 29°48' W 092°06'2 3.2
2018-Jul-19 06:30N 29°48' W 092°04'2 3.1
2018-Jul-19 06:00N 29°49' W 092°02'2 4.6
2018-Jul-19 05:30N 29°50' W 091°60'2 4.3
2018-Jul-19 05:00N 29°50' W 091°58'2 4.4
2018-Jul-19 04:30N 29°51' W 091°55'49 1.2
2018-Jul-17 12:49N 30°23' W 091°14'1 2.9
2018-Jul-17 12:27N 30°22' W 091°14'  
2018-Jul-14 22:18N 29°51' W 091°52'1 3.6
2018-Jul-14 21:57N 29°51' W 091°53'2 4.2
2018-Jul-14 21:30N 29°51' W 091°56'2 4.1
2018-Jul-14 21:00N 29°50' W 091°58'2 3.9
2018-Jul-14 20:30N 29°50' W 092°00'2 4.3
2018-Jul-14 20:00N 29°49' W 092°02'2 4.2
2018-Jul-14 19:30N 29°48' W 092°05'2 4.4
2018-Jul-14 19:00N 29°47' W 092°07'2 4.4
2018-Jul-14 18:30N 29°47' W 092°09'2 3.8
2018-Jul-14 18:00N 29°47' W 092°12'1 1.7
2018-Jul-14 17:30N 29°47' W 092°13'1 2.9
2018-Jul-14 17:00N 29°48' W 092°14'2 3.9
2018-Jul-14 16:30N 29°49' W 092°16'2 3.6
2018-Jul-14 16:00N 29°50' W 092°18'2 3.4
2018-Jul-14 15:30N 29°50' W 092°20'2 3.3
2018-Jul-14 14:58N 29°51' W 092°22'1 2.5
2018-Jul-14 14:28N 29°52' W 092°22'31 3.5
2018-Jul-14 05:37N 29°56' W 092°57'1 3.6
2018-Jul-14 05:29N 29°56' W 092°58'2 3.6
2018-Jul-14 04:56N 29°56' W 093°00'1 3.3
2018-Jul-14 04:30N 29°56' W 093°02'2 3.2
2018-Jul-14 04:00N 29°56' W 093°04'2 3.8
2018-Jul-14 03:30N 29°56' W 093°06'2 3.4
2018-Jul-14 03:00N 29°56' W 093°08'2 3.3
2018-Jul-14 02:30N 29°56' W 093°10'2 3.6
2018-Jul-14 02:00N 29°58' W 093°11'2 3.6
2018-Jul-14 01:30N 29°59' W 093°12'2 3.3
2018-Jul-14 01:00N 30°00' W 093°14'2 3.1
2018-Jul-14 00:30N 30°02' W 093°14'1 2.7
2018-Jul-14 00:00N 30°03' W 093°16'1 3.0
2018-Jul-13 23:30N 30°04' W 093°16'2 3.4
2018-Jul-13 23:00N 30°05' W 093°18'0 0.8
2018-Jul-13 22:30N 30°05' W 093°18'1 1.1
2018-Jul-13 22:00N 30°06' W 093°18'0 0.0
2018-Jul-13 21:30N 30°06' W 093°18'0 0.1
2018-Jul-13 21:00N 30°06' W 093°18'0 0.0
2018-Jul-13 20:30N 30°06' W 093°18'0 0.0
2018-Jul-13 20:00N 30°06' W 093°18'0 0.0
2018-Jul-13 19:30N 30°06' W 093°18'0 0.0
2018-Jul-13 19:00N 30°06' W 093°18'0 0.1
2018-Jul-13 18:30N 30°06' W 093°18'0 0.0
2018-Jul-13 18:00N 30°06' W 093°18'0 0.0
2018-Jul-13 17:30N 30°06' W 093°18'0 0.0
2018-Jul-13 17:00N 30°06' W 093°18'0 0.0
2018-Jul-13 16:30N 30°06' W 093°18'0 0.0
2018-Jul-13 16:00N 30°06' W 093°18'0 0.1
2018-Jul-13 15:30N 30°06' W 093°18'0 0.0
2018-Jul-13 15:00N 30°06' W 093°18'2 1.8
2018-Jul-13 14:00N 30°05' W 093°20'2 3.0
2018-Jul-13 13:30N 30°04' W 093°21'1 2.7
2018-Jul-13 13:00N 30°04' W 093°23'1 1.3
2018-Jul-13 12:30N 30°04' W 093°23'0 0.0
2018-Jul-13 12:00N 30°04' W 093°23'0 0.0
2018-Jul-13 11:30N 30°04' W 093°23'0 0.1
2018-Jul-13 11:00N 30°04' W 093°23'0 0.0
2018-Jul-13 10:30N 30°04' W 093°23'0 0.0
2018-Jul-13 10:00N 30°04' W 093°23'0 0.0
2018-Jul-13 09:30N 30°04' W 093°23'0 0.0
2018-Jul-13 09:00N 30°04' W 093°23'0 0.0
2018-Jul-13 08:30N 30°04' W 093°23'0 0.0
2018-Jul-13 08:00N 30°04' W 093°23'0 0.0
2018-Jul-13 07:30N 30°04' W 093°23'0 0.0
2018-Jul-13 07:00N 30°04' W 093°23'0 0.0
2018-Jul-13 06:30N 30°04' W 093°23'0 0.0
2018-Jul-13 06:00N 30°04' W 093°23'0 0.0
2018-Jul-13 05:30N 30°04' W 093°23'0 0.0
2018-Jul-13 05:00N 30°04' W 093°23'0 0.0
2018-Jul-13 04:30N 30°04' W 093°23'0 0.0
2018-Jul-13 04:00N 30°04' W 093°23'0 0.0
2018-Jul-13 03:30N 30°04' W 093°23'0 0.0
2018-Jul-13 03:00N 30°04' W 093°23'0 0.0
2018-Jul-13 02:30N 30°04' W 093°23'0 0.0
2018-Jul-13 02:00N 30°04' W 093°23'0 0.0
2018-Jul-13 01:30N 30°04' W 093°23'0 0.0
2018-Jul-13 01:00N 30°04' W 093°23'0 0.0
2018-Jul-13 00:30N 30°04' W 093°23'0 0.0
2018-Jul-13 00:00N 30°04' W 093°23'0 0.0
2018-Jul-12 23:30N 30°04' W 093°23'0 0.0
2018-Jul-12 23:00N 30°04' W 093°23'2 3.5
2018-Jul-12 22:30N 30°04' W 093°21'0 0.0
2018-Jul-12 22:00N 30°04' W 093°21'0 0.0
2018-Jul-12 21:30N 30°04' W 093°21'0 0.0
2018-Jul-12 21:00N 30°04' W 093°21'0 0.0
2018-Jul-12 20:30N 30°04' W 093°21'0 0.0
2018-Jul-12 20:00N 30°04' W 093°21'2 3.5
2018-Jul-12 19:30N 30°04' W 093°23'0 0.0
2018-Jul-12 19:00N 30°04' W 093°23'0 0.0
2018-Jul-12 18:30N 30°04' W 093°23'0 0.0
2018-Jul-12 18:00N 30°04' W 093°23'0 0.0
2018-Jul-12 17:30N 30°04' W 093°23'0 0.0
2018-Jul-12 17:00N 30°04' W 093°23'0 0.0
2018-Jul-12 16:30N 30°04' W 093°23'0 0.0
2018-Jul-12 16:00N 30°04' W 093°23'0 0.0
2018-Jul-12 15:30N 30°04' W 093°23'0 0.0
2018-Jul-12 15:00N 30°04' W 093°23'0 0.0
2018-Jul-12 14:30N 30°04' W 093°23'0 0.0
2018-Jul-12 14:00N 30°04' W 093°23'0 0.0
2018-Jul-12 13:30N 30°04' W 093°23'0 0.0
2018-Jul-12 13:00N 30°04' W 093°23'  

Dump ship's entire track history